sensor_id;sensor_type;location;lat;lon;timestamp;P1;durP1;ratioP1;P2;durP2;ratioP2
45686;SDS011;31399;51.176;7.776;2023-07-20T00:01:53;9.07;;;4.57;;
45686;SDS011;31399;51.176;7.776;2023-07-20T00:04:20;8.27;;;4.35;;
45686;SDS011;31399;51.176;7.776;2023-07-20T00:06:46;8.77;;;3.75;;
45686;SDS011;31399;51.176;7.776;2023-07-20T00:09:13;9.52;;;3.70;;
45686;SDS011;31399;51.176;7.776;2023-07-20T00:11:39;7.53;;;4.10;;
45686;SDS011;31399;51.176;7.776;2023-07-20T00:14:06;8.88;;;3.47;;
45686;SDS011;31399;51.176;7.776;2023-07-20T00:16:33;9.10;;;3.28;;
45686;SDS011;31399;51.176;7.776;2023-07-20T00:19:00;14.88;;;4.95;;
45686;SDS011;31399;51.176;7.776;2023-07-20T00:21:27;12.05;;;4.15;;
45686;SDS011;31399;51.176;7.776;2023-07-20T00:23:53;11.27;;;5.07;;
45686;SDS011;31399;51.176;7.776;2023-07-20T00:26:20;11.48;;;5.03;;
45686;SDS011;31399;51.176;7.776;2023-07-20T00:28:48;13.73;;;5.88;;
45686;SDS011;31399;51.176;7.776;2023-07-20T00:31:16;11.15;;;5.28;;
45686;SDS011;31399;51.176;7.776;2023-07-20T00:33:42;15.50;;;5.43;;
45686;SDS011;31399;51.176;7.776;2023-07-20T00:36:09;15.50;;;6.45;;
45686;SDS011;31399;51.176;7.776;2023-07-20T00:38:35;11.25;;;6.30;;
45686;SDS011;31399;51.176;7.776;2023-07-20T00:41:02;17.85;;;6.32;;
45686;SDS011;31399;51.176;7.776;2023-07-20T00:43:29;11.48;;;6.10;;
45686;SDS011;31399;51.176;7.776;2023-07-20T00:45:55;11.95;;;5.80;;
45686;SDS011;31399;51.176;7.776;2023-07-20T00:48:22;9.68;;;5.15;;
45686;SDS011;31399;51.176;7.776;2023-07-20T00:50:49;10.20;;;5.32;;
45686;SDS011;31399;51.176;7.776;2023-07-20T00:53:16;12.57;;;6.22;;
45686;SDS011;31399;51.176;7.776;2023-07-20T00:55:43;12.27;;;6.28;;
45686;SDS011;31399;51.176;7.776;2023-07-20T00:58:10;9.80;;;5.68;;
45686;SDS011;31399;51.176;7.776;2023-07-20T01:00:37;9.35;;;6.28;;
45686;SDS011;31399;51.176;7.776;2023-07-20T01:03:04;13.48;;;6.10;;
45686;SDS011;31399;51.176;7.776;2023-07-20T01:05:36;10.18;;;5.55;;
45686;SDS011;31399;51.176;7.776;2023-07-20T01:08:23;8.63;;;5.78;;
45686;SDS011;31399;51.176;7.776;2023-07-20T01:10:58;12.20;;;6.72;;
45686;SDS011;31399;51.176;7.776;2023-07-20T01:13:32;11.30;;;6.85;;
45686;SDS011;31399;51.176;7.776;2023-07-20T01:16:02;9.27;;;6.80;;
45686;SDS011;31399;51.176;7.776;2023-07-20T01:18:29;13.82;;;7.47;;
45686;SDS011;31399;51.176;7.776;2023-07-20T01:20:58;12.13;;;7.47;;
45686;SDS011;31399;51.176;7.776;2023-07-20T01:32:09;12.15;;;6.57;;
45686;SDS011;31399;51.176;7.776;2023-07-20T01:34:36;13.38;;;7.90;;
45686;SDS011;31399;51.176;7.776;2023-07-20T01:37:03;11.65;;;6.68;;
45686;SDS011;31399;51.176;7.776;2023-07-20T01:39:30;10.55;;;6.18;;
45686;SDS011;31399;51.176;7.776;2023-07-20T01:41:57;11.02;;;6.85;;
45686;SDS011;31399;51.176;7.776;2023-07-20T01:44:24;13.45;;;6.90;;
45686;SDS011;31399;51.176;7.776;2023-07-20T01:46:50;12.32;;;6.85;;
45686;SDS011;31399;51.176;7.776;2023-07-20T01:49:17;12.15;;;8.13;;
45686;SDS011;31399;51.176;7.776;2023-07-20T01:51:44;16.60;;;8.50;;
45686;SDS011;31399;51.176;7.776;2023-07-20T01:54:10;13.20;;;7.90;;
45686;SDS011;31399;51.176;7.776;2023-07-20T01:56:37;13.07;;;8.02;;
45686;SDS011;31399;51.176;7.776;2023-07-20T01:59:04;10.35;;;6.80;;
45686;SDS011;31399;51.176;7.776;2023-07-20T02:01:30;15.20;;;9.15;;
45686;SDS011;31399;51.176;7.776;2023-07-20T02:03:57;17.42;;;9.18;;
45686;SDS011;31399;51.176;7.776;2023-07-20T02:06:23;15.55;;;8.10;;
45686;SDS011;31399;51.176;7.776;2023-07-20T02:08:51;11.63;;;7.95;;
45686;SDS011;31399;51.176;7.776;2023-07-20T02:11:17;16.58;;;9.27;;
45686;SDS011;31399;51.176;7.776;2023-07-20T02:13:44;13.10;;;8.23;;
45686;SDS011;31399;51.176;7.776;2023-07-20T02:16:10;16.02;;;9.82;;
45686;SDS011;31399;51.176;7.776;2023-07-20T02:18:37;18.95;;;10.70;;
45686;SDS011;31399;51.176;7.776;2023-07-20T02:21:04;15.55;;;8.32;;
45686;SDS011;31399;51.176;7.776;2023-07-20T02:23:31;15.85;;;9.52;;
45686;SDS011;31399;51.176;7.776;2023-07-20T02:25:58;16.60;;;9.80;;
45686;SDS011;31399;51.176;7.776;2023-07-20T02:28:24;14.05;;;8.02;;
45686;SDS011;31399;51.176;7.776;2023-07-20T02:30:51;17.23;;;9.30;;
45686;SDS011;31399;51.176;7.776;2023-07-20T02:33:17;19.38;;;9.82;;
45686;SDS011;31399;51.176;7.776;2023-07-20T02:35:44;15.27;;;8.25;;
45686;SDS011;31399;51.176;7.776;2023-07-20T02:38:11;13.25;;;9.18;;
45686;SDS011;31399;51.176;7.776;2023-07-20T02:40:37;11.35;;;7.60;;
45686;SDS011;31399;51.176;7.776;2023-07-20T02:43:04;14.30;;;8.10;;
45686;SDS011;31399;51.176;7.776;2023-07-20T02:45:30;18.95;;;9.80;;
45686;SDS011;31399;51.176;7.776;2023-07-20T02:47:57;13.45;;;8.27;;
45686;SDS011;31399;51.176;7.776;2023-07-20T02:50:24;18.23;;;9.05;;
45686;SDS011;31399;51.176;7.776;2023-07-20T02:52:50;17.75;;;9.00;;
45686;SDS011;31399;51.176;7.776;2023-07-20T02:55:17;19.50;;;9.55;;
45686;SDS011;31399;51.176;7.776;2023-07-20T02:57:44;15.88;;;8.85;;
45686;SDS011;31399;51.176;7.776;2023-07-20T03:00:10;14.98;;;9.45;;
45686;SDS011;31399;51.176;7.776;2023-07-20T03:02:38;18.83;;;9.18;;
45686;SDS011;31399;51.176;7.776;2023-07-20T03:05:05;15.48;;;9.05;;
45686;SDS011;31399;51.176;7.776;2023-07-20T03:07:33;13.82;;;8.73;;
45686;SDS011;31399;51.176;7.776;2023-07-20T03:10:00;17.17;;;9.65;;
45686;SDS011;31399;51.176;7.776;2023-07-20T03:12:26;15.15;;;9.15;;
45686;SDS011;31399;51.176;7.776;2023-07-20T03:14:54;15.00;;;9.57;;
45686;SDS011;31399;51.176;7.776;2023-07-20T03:17:20;18.35;;;10.07;;
45686;SDS011;31399;51.176;7.776;2023-07-20T03:19:47;20.80;;;9.98;;
45686;SDS011;31399;51.176;7.776;2023-07-20T03:22:14;19.17;;;10.15;;
45686;SDS011;31399;51.176;7.776;2023-07-20T03:24:40;15.48;;;9.50;;
45686;SDS011;31399;51.176;7.776;2023-07-20T03:27:07;16.67;;;9.57;;
45686;SDS011;31399;51.176;7.776;2023-07-20T03:29:33;17.58;;;9.65;;
45686;SDS011;31399;51.176;7.776;2023-07-20T03:32:01;22.92;;;12.27;;
45686;SDS011;31399;51.176;7.776;2023-07-20T03:34:27;18.65;;;10.15;;
45686;SDS011;31399;51.176;7.776;2023-07-20T03:36:54;24.92;;;12.38;;
45686;SDS011;31399;51.176;7.776;2023-07-20T03:39:21;30.85;;;14.73;;
45686;SDS011;31399;51.176;7.776;2023-07-20T03:41:48;23.38;;;14.15;;
45686;SDS011;31399;51.176;7.776;2023-07-20T03:44:15;20.50;;;12.88;;
45686;SDS011;31399;51.176;7.776;2023-07-20T03:46:42;26.10;;;13.88;;
45686;SDS011;31399;51.176;7.776;2023-07-20T03:49:08;23.40;;;14.02;;
45686;SDS011;31399;51.176;7.776;2023-07-20T03:51:36;26.80;;;15.30;;
45686;SDS011;31399;51.176;7.776;2023-07-20T03:54:02;27.92;;;15.40;;
45686;SDS011;31399;51.176;7.776;2023-07-20T03:56:29;24.80;;;15.27;;
45686;SDS011;31399;51.176;7.776;2023-07-20T03:59:00;24.10;;;14.60;;
45686;SDS011;31399;51.176;7.776;2023-07-20T04:01:27;29.02;;;15.98;;
45686;SDS011;31399;51.176;7.776;2023-07-20T04:03:54;30.73;;;16.52;;
45686;SDS011;31399;51.176;7.776;2023-07-20T04:06:20;27.95;;;14.27;;
45686;SDS011;31399;51.176;7.776;2023-07-20T04:08:47;26.08;;;14.98;;
45686;SDS011;31399;51.176;7.776;2023-07-20T04:11:14;22.15;;;13.10;;
45686;SDS011;31399;51.176;7.776;2023-07-20T04:13:41;26.45;;;14.35;;
45686;SDS011;31399;51.176;7.776;2023-07-20T04:16:08;23.70;;;14.05;;
45686;SDS011;31399;51.176;7.776;2023-07-20T04:18:35;26.38;;;14.88;;
45686;SDS011;31399;51.176;7.776;2023-07-20T04:21:01;24.20;;;14.05;;
45686;SDS011;31399;51.176;7.776;2023-07-20T04:23:28;22.48;;;14.48;;
45686;SDS011;31399;51.176;7.776;2023-07-20T04:25:54;22.33;;;14.15;;
45686;SDS011;31399;51.176;7.776;2023-07-20T04:28:21;28.17;;;13.85;;
45686;SDS011;31399;51.176;7.776;2023-07-20T04:30:48;25.42;;;14.00;;
45686;SDS011;31399;51.176;7.776;2023-07-20T04:33:16;24.95;;;14.40;;
45686;SDS011;31399;51.176;7.776;2023-07-20T04:35:53;32.65;;;14.60;;
45686;SDS011;31399;51.176;7.776;2023-07-20T04:38:21;22.17;;;13.27;;
45686;SDS011;31399;51.176;7.776;2023-07-20T04:40:48;23.00;;;13.15;;
45686;SDS011;31399;51.176;7.776;2023-07-20T04:43:15;21.67;;;12.80;;
45686;SDS011;31399;51.176;7.776;2023-07-20T04:45:42;26.63;;;13.60;;
45686;SDS011;31399;51.176;7.776;2023-07-20T04:48:10;19.08;;;12.95;;
45686;SDS011;31399;51.176;7.776;2023-07-20T04:50:42;20.92;;;12.57;;
45686;SDS011;31399;51.176;7.776;2023-07-20T04:53:11;19.35;;;11.48;;
45686;SDS011;31399;51.176;7.776;2023-07-20T04:55:38;25.15;;;12.45;;
45686;SDS011;31399;51.176;7.776;2023-07-20T04:58:06;22.20;;;11.93;;
45686;SDS011;31399;51.176;7.776;2023-07-20T05:00:33;16.40;;;10.88;;
45686;SDS011;31399;51.176;7.776;2023-07-20T05:03:00;20.05;;;11.45;;
45686;SDS011;31399;51.176;7.776;2023-07-20T05:05:26;17.00;;;10.45;;
45686;SDS011;31399;51.176;7.776;2023-07-20T05:07:53;19.45;;;11.70;;
45686;SDS011;31399;51.176;7.776;2023-07-20T05:10:21;21.00;;;11.40;;
45686;SDS011;31399;51.176;7.776;2023-07-20T05:12:47;19.92;;;11.93;;
45686;SDS011;31399;51.176;7.776;2023-07-20T05:15:14;25.80;;;11.85;;
45686;SDS011;31399;51.176;7.776;2023-07-20T05:17:41;20.13;;;11.05;;
45686;SDS011;31399;51.176;7.776;2023-07-20T05:20:08;21.75;;;11.32;;
45686;SDS011;31399;51.176;7.776;2023-07-20T05:22:38;15.80;;;9.73;;
45686;SDS011;31399;51.176;7.776;2023-07-20T05:25:07;16.50;;;10.43;;
45686;SDS011;31399;51.176;7.776;2023-07-20T05:27:38;20.02;;;11.57;;
45686;SDS011;31399;51.176;7.776;2023-07-20T05:30:06;19.73;;;12.07;;
45686;SDS011;31399;51.176;7.776;2023-07-20T05:32:33;15.57;;;9.52;;
45686;SDS011;31399;51.176;7.776;2023-07-20T05:35:00;15.75;;;9.15;;
45686;SDS011;31399;51.176;7.776;2023-07-20T05:37:27;18.63;;;10.68;;
45686;SDS011;31399;51.176;7.776;2023-07-20T05:39:53;20.90;;;10.80;;
45686;SDS011;31399;51.176;7.776;2023-07-20T05:42:20;17.13;;;10.50;;
45686;SDS011;31399;51.176;7.776;2023-07-20T05:44:46;19.27;;;10.23;;
45686;SDS011;31399;51.176;7.776;2023-07-20T05:47:19;16.80;;;9.85;;
45686;SDS011;31399;51.176;7.776;2023-07-20T05:49:45;15.63;;;8.68;;
45686;SDS011;31399;51.176;7.776;2023-07-20T05:52:12;18.90;;;10.75;;
45686;SDS011;31399;51.176;7.776;2023-07-20T05:54:39;16.75;;;9.27;;
45686;SDS011;31399;51.176;7.776;2023-07-20T05:57:06;14.15;;;7.97;;
45686;SDS011;31399;51.176;7.776;2023-07-20T05:59:32;12.30;;;8.23;;
45686;SDS011;31399;51.176;7.776;2023-07-20T06:01:59;12.38;;;8.00;;
45686;SDS011;31399;51.176;7.776;2023-07-20T06:04:26;17.00;;;7.85;;
45686;SDS011;31399;51.176;7.776;2023-07-20T06:06:52;15.40;;;8.32;;
45686;SDS011;31399;51.176;7.776;2023-07-20T06:09:19;11.70;;;8.20;;
45686;SDS011;31399;51.176;7.776;2023-07-20T06:11:46;12.38;;;7.70;;
45686;SDS011;31399;51.176;7.776;2023-07-20T06:14:12;15.05;;;7.47;;
45686;SDS011;31399;51.176;7.776;2023-07-20T06:16:39;12.00;;;7.40;;
45686;SDS011;31399;51.176;7.776;2023-07-20T06:19:06;15.68;;;7.55;;
45686;SDS011;31399;51.176;7.776;2023-07-20T06:21:32;13.27;;;7.60;;
45686;SDS011;31399;51.176;7.776;2023-07-20T06:23:59;14.80;;;8.27;;
45686;SDS011;31399;51.176;7.776;2023-07-20T06:26:25;12.15;;;7.60;;
45686;SDS011;31399;51.176;7.776;2023-07-20T06:28:52;19.80;;;8.02;;
45686;SDS011;31399;51.176;7.776;2023-07-20T06:31:19;13.05;;;7.85;;
45686;SDS011;31399;51.176;7.776;2023-07-20T06:33:46;15.32;;;7.40;;
45686;SDS011;31399;51.176;7.776;2023-07-20T06:36:12;15.15;;;8.05;;
45686;SDS011;31399;51.176;7.776;2023-07-20T06:38:39;16.42;;;8.82;;
45686;SDS011;31399;51.176;7.776;2023-07-20T06:41:06;15.98;;;9.05;;
45686;SDS011;31399;51.176;7.776;2023-07-20T06:43:36;14.90;;;8.73;;
45686;SDS011;31399;51.176;7.776;2023-07-20T06:46:05;14.30;;;9.20;;
45686;SDS011;31399;51.176;7.776;2023-07-20T06:48:32;15.90;;;8.65;;
45686;SDS011;31399;51.176;7.776;2023-07-20T06:51:19;13.75;;;8.45;;
45686;SDS011;31399;51.176;7.776;2023-07-20T06:53:47;15.65;;;9.88;;
45686;SDS011;31399;51.176;7.776;2023-07-20T06:56:13;17.55;;;9.98;;
45686;SDS011;31399;51.176;7.776;2023-07-20T06:58:40;18.17;;;10.05;;
45686;SDS011;31399;51.176;7.776;2023-07-20T07:01:07;13.98;;;9.10;;
45686;SDS011;31399;51.176;7.776;2023-07-20T07:03:35;15.23;;;8.57;;
45686;SDS011;31399;51.176;7.776;2023-07-20T07:06:03;17.90;;;9.30;;
45686;SDS011;31399;51.176;7.776;2023-07-20T07:08:30;15.75;;;9.20;;
45686;SDS011;31399;51.176;7.776;2023-07-20T07:10:56;13.30;;;9.05;;
45686;SDS011;31399;51.176;7.776;2023-07-20T07:13:23;16.38;;;8.65;;
45686;SDS011;31399;51.176;7.776;2023-07-20T07:15:51;12.65;;;8.02;;
45686;SDS011;31399;51.176;7.776;2023-07-20T07:18:18;11.20;;;7.50;;
45686;SDS011;31399;51.176;7.776;2023-07-20T07:20:53;13.60;;;7.85;;
45686;SDS011;31399;51.176;7.776;2023-07-20T07:23:20;11.52;;;7.80;;
45686;SDS011;31399;51.176;7.776;2023-07-20T07:25:47;11.77;;;7.63;;
45686;SDS011;31399;51.176;7.776;2023-07-20T07:28:14;10.38;;;7.40;;
45686;SDS011;31399;51.176;7.776;2023-07-20T07:30:40;11.45;;;7.10;;
45686;SDS011;31399;51.176;7.776;2023-07-20T07:33:07;9.63;;;5.80;;
45686;SDS011;31399;51.176;7.776;2023-07-20T07:35:35;9.05;;;6.13;;
45686;SDS011;31399;51.176;7.776;2023-07-20T07:38:01;12.07;;;5.93;;
45686;SDS011;31399;51.176;7.776;2023-07-20T07:40:48;9.90;;;5.63;;
45686;SDS011;31399;51.176;7.776;2023-07-20T07:43:15;7.93;;;5.68;;
45686;SDS011;31399;51.176;7.776;2023-07-20T07:45:41;9.10;;;6.20;;
45686;SDS011;31399;51.176;7.776;2023-07-20T07:48:08;7.38;;;6.22;;
45686;SDS011;31399;51.176;7.776;2023-07-20T07:50:37;7.45;;;5.70;;
45686;SDS011;31399;51.176;7.776;2023-07-20T07:53:04;9.98;;;5.85;;
45686;SDS011;31399;51.176;7.776;2023-07-20T07:55:31;8.15;;;5.63;;
45686;SDS011;31399;51.176;7.776;2023-07-20T07:57:57;7.93;;;5.72;;
45686;SDS011;31399;51.176;7.776;2023-07-20T08:00:24;10.57;;;6.38;;
45686;SDS011;31399;51.176;7.776;2023-07-20T08:02:51;8.02;;;5.90;;
45686;SDS011;31399;51.176;7.776;2023-07-20T08:05:17;7.50;;;5.72;;
45686;SDS011;31399;51.176;7.776;2023-07-20T08:07:44;7.53;;;5.80;;
45686;SDS011;31399;51.176;7.776;2023-07-20T08:10:11;9.90;;;6.82;;
45686;SDS011;31399;51.176;7.776;2023-07-20T08:12:38;9.45;;;6.63;;
45686;SDS011;31399;51.176;7.776;2023-07-20T08:15:04;12.82;;;6.82;;
45686;SDS011;31399;51.176;7.776;2023-07-20T08:17:31;8.55;;;6.20;;
45686;SDS011;31399;51.176;7.776;2023-07-20T08:19:58;7.90;;;6.18;;
45686;SDS011;31399;51.176;7.776;2023-07-20T08:22:25;9.93;;;6.05;;
45686;SDS011;31399;51.176;7.776;2023-07-20T08:24:52;8.57;;;6.47;;
45686;SDS011;31399;51.176;7.776;2023-07-20T08:27:18;7.13;;;5.50;;
45686;SDS011;31399;51.176;7.776;2023-07-20T08:29:45;7.38;;;5.43;;
45686;SDS011;31399;51.176;7.776;2023-07-20T08:32:12;8.77;;;5.43;;
45686;SDS011;31399;51.176;7.776;2023-07-20T08:34:41;6.30;;;4.63;;
45686;SDS011;31399;51.176;7.776;2023-07-20T08:37:08;6.63;;;4.38;;
45686;SDS011;31399;51.176;7.776;2023-07-20T08:39:36;5.18;;;3.75;;
45686;SDS011;31399;51.176;7.776;2023-07-20T08:42:03;4.78;;;3.45;;
45686;SDS011;31399;51.176;7.776;2023-07-20T08:44:33;5.63;;;2.90;;
45686;SDS011;31399;51.176;7.776;2023-07-20T08:47:00;6.97;;;2.90;;
45686;SDS011;31399;51.176;7.776;2023-07-20T08:49:29;3.50;;;3.08;;
45686;SDS011;31399;51.176;7.776;2023-07-20T08:51:57;4.15;;;2.88;;
45686;SDS011;31399;51.176;7.776;2023-07-20T08:54:25;3.78;;;2.47;;
45686;SDS011;31399;51.176;7.776;2023-07-20T08:56:54;3.28;;;2.20;;
45686;SDS011;31399;51.176;7.776;2023-07-20T08:59:22;2.70;;;2.33;;
45686;SDS011;31399;51.176;7.776;2023-07-20T09:01:50;3.42;;;2.42;;
45686;SDS011;31399;51.176;7.776;2023-07-20T09:04:20;4.30;;;2.42;;
45686;SDS011;31399;51.176;7.776;2023-07-20T09:06:46;3.88;;;2.13;;
45686;SDS011;31399;51.176;7.776;2023-07-20T09:09:15;2.60;;;2.15;;
45686;SDS011;31399;51.176;7.776;2023-07-20T09:11:42;5.97;;;1.90;;
45686;SDS011;31399;51.176;7.776;2023-07-20T09:14:10;2.83;;;2.22;;
45686;SDS011;31399;51.176;7.776;2023-07-20T09:16:51;2.42;;;1.70;;
45686;SDS011;31399;51.176;7.776;2023-07-20T09:19:19;1.58;;;1.30;;
45686;SDS011;31399;51.176;7.776;2023-07-20T09:21:46;1.80;;;1.10;;
45686;SDS011;31399;51.176;7.776;2023-07-20T09:24:14;2.35;;;1.00;;
45686;SDS011;31399;51.176;7.776;2023-07-20T09:26:44;1.73;;;1.52;;
45686;SDS011;31399;51.176;7.776;2023-07-20T09:29:14;3.22;;;1.20;;
45686;SDS011;31399;51.176;7.776;2023-07-20T09:31:42;1.08;;;0.98;;
45686;SDS011;31399;51.176;7.776;2023-07-20T09:34:08;2.20;;;1.90;;
45686;SDS011;31399;51.176;7.776;2023-07-20T09:36:36;1.95;;;1.40;;
45686;SDS011;31399;51.176;7.776;2023-07-20T09:39:05;3.15;;;1.10;;
45686;SDS011;31399;51.176;7.776;2023-07-20T09:41:41;3.08;;;1.30;;
45686;SDS011;31399;51.176;7.776;2023-07-20T09:44:15;2.08;;;1.30;;
45686;SDS011;31399;51.176;7.776;2023-07-20T09:46:45;1.20;;;1.00;;
45686;SDS011;31399;51.176;7.776;2023-07-20T09:51:48;1.77;;;0.80;;
45686;SDS011;31399;51.176;7.776;2023-07-20T09:54:16;1.30;;;0.55;;
45686;SDS011;31399;51.176;7.776;2023-07-20T09:56:43;1.15;;;0.85;;
45686;SDS011;31399;51.176;7.776;2023-07-20T09:59:10;1.02;;;0.65;;
45686;SDS011;31399;51.176;7.776;2023-07-20T10:01:37;0.90;;;0.35;;
45686;SDS011;31399;51.176;7.776;2023-07-20T10:04:08;0.90;;;0.70;;
45686;SDS011;31399;51.176;7.776;2023-07-20T10:06:35;0.85;;;0.60;;
45686;SDS011;31399;51.176;7.776;2023-07-20T10:09:04;0.93;;;0.70;;
45686;SDS011;31399;51.176;7.776;2023-07-20T10:11:34;0.60;;;0.50;;
45686;SDS011;31399;51.176;7.776;2023-07-20T10:14:03;1.38;;;0.80;;
45686;SDS011;31399;51.176;7.776;2023-07-20T10:16:35;0.60;;;0.40;;
45686;SDS011;31399;51.176;7.776;2023-07-20T10:21:47;0.80;;;0.55;;
45686;SDS011;31399;51.176;7.776;2023-07-20T10:24:21;0.45;;;0.35;;
45686;SDS011;31399;51.176;7.776;2023-07-20T10:26:48;0.88;;;0.50;;
45686;SDS011;31399;51.176;7.776;2023-07-20T10:29:14;0.35;;;0.30;;
45686;SDS011;31399;51.176;7.776;2023-07-20T10:31:42;1.27;;;0.40;;
45686;SDS011;31399;51.176;7.776;2023-07-20T10:34:09;0.68;;;0.40;;
45686;SDS011;31399;51.176;7.776;2023-07-20T10:36:43;0.50;;;0.40;;
45686;SDS011;31399;51.176;7.776;2023-07-20T10:39:23;1.48;;;0.50;;
45686;SDS011;31399;51.176;7.776;2023-07-20T10:42:01;0.90;;;0.50;;
45686;SDS011;31399;51.176;7.776;2023-07-20T10:44:36;1.03;;;0.50;;
45686;SDS011;31399;51.176;7.776;2023-07-20T10:47:08;0.60;;;0.30;;
45686;SDS011;31399;51.176;7.776;2023-07-20T10:52:36;0.47;;;0.28;;
45686;SDS011;31399;51.176;7.776;2023-07-20T10:55:16;1.00;;;0.40;;
45686;SDS011;31399;51.176;7.776;2023-07-20T10:57:43;0.63;;;0.50;;
45686;SDS011;31399;51.176;7.776;2023-07-20T11:00:36;0.50;;;0.40;;
45686;SDS011;31399;51.176;7.776;2023-07-20T11:03:03;0.57;;;0.50;;
45686;SDS011;31399;51.176;7.776;2023-07-20T11:05:34;0.60;;;0.50;;
45686;SDS011;31399;51.176;7.776;2023-07-20T11:08:37;1.10;;;0.60;;
45686;SDS011;31399;51.176;7.776;2023-07-20T11:11:26;0.82;;;0.60;;
45686;SDS011;31399;51.176;7.776;2023-07-20T11:13:57;1.48;;;0.60;;
45686;SDS011;31399;51.176;7.776;2023-07-20T11:16:41;1.35;;;0.60;;
45686;SDS011;31399;51.176;7.776;2023-07-20T11:21:49;0.70;;;0.57;;
45686;SDS011;31399;51.176;7.776;2023-07-20T11:24:28;1.40;;;0.80;;
45686;SDS011;31399;51.176;7.776;2023-07-20T11:26:54;1.48;;;0.80;;
45686;SDS011;31399;51.176;7.776;2023-07-20T11:29:22;1.10;;;0.52;;
45686;SDS011;31399;51.176;7.776;2023-07-20T11:31:57;1.00;;;0.60;;
45686;SDS011;31399;51.176;7.776;2023-07-20T11:34:29;3.00;;;0.65;;
45686;SDS011;31399;51.176;7.776;2023-07-20T11:36:56;0.98;;;0.73;;
45686;SDS011;31399;51.176;7.776;2023-07-20T11:39:26;0.85;;;0.60;;
45686;SDS011;31399;51.176;7.776;2023-07-20T11:41:56;1.52;;;0.90;;
45686;SDS011;31399;51.176;7.776;2023-07-20T11:44:24;0.90;;;0.77;;
45686;SDS011;31399;51.176;7.776;2023-07-20T11:47:07;0.93;;;0.80;;
45686;SDS011;31399;51.176;7.776;2023-07-20T11:49:35;1.80;;;0.77;;
45686;SDS011;31399;51.176;7.776;2023-07-20T11:52:07;1.15;;;0.70;;
45686;SDS011;31399;51.176;7.776;2023-07-20T11:54:35;1.63;;;0.80;;
45686;SDS011;31399;51.176;7.776;2023-07-20T11:57:02;1.23;;;0.60;;
45686;SDS011;31399;51.176;7.776;2023-07-20T11:59:29;1.10;;;0.90;;
45686;SDS011;31399;51.176;7.776;2023-07-20T12:01:56;0.80;;;0.68;;
45686;SDS011;31399;51.176;7.776;2023-07-20T12:04:24;0.70;;;0.57;;
45686;SDS011;31399;51.176;7.776;2023-07-20T12:06:53;0.73;;;0.63;;
45686;SDS011;31399;51.176;7.776;2023-07-20T12:09:20;1.77;;;0.70;;
45686;SDS011;31399;51.176;7.776;2023-07-20T12:11:48;0.70;;;0.60;;
45686;SDS011;31399;51.176;7.776;2023-07-20T12:14:16;0.85;;;0.70;;
45686;SDS011;31399;51.176;7.776;2023-07-20T12:16:43;0.73;;;0.60;;
45686;SDS011;31399;51.176;7.776;2023-07-20T12:19:11;2.08;;;0.90;;
45686;SDS011;31399;51.176;7.776;2023-07-20T12:21:39;1.02;;;0.77;;
45686;SDS011;31399;51.176;7.776;2023-07-20T12:24:08;1.33;;;0.60;;
45686;SDS011;31399;51.176;7.776;2023-07-20T12:26:38;0.75;;;0.47;;
45686;SDS011;31399;51.176;7.776;2023-07-20T12:29:04;1.13;;;0.57;;
45686;SDS011;31399;51.176;7.776;2023-07-20T12:31:33;0.88;;;0.70;;
45686;SDS011;31399;51.176;7.776;2023-07-20T12:34:02;0.80;;;0.55;;
45686;SDS011;31399;51.176;7.776;2023-07-20T12:36:28;1.20;;;0.82;;
45686;SDS011;31399;51.176;7.776;2023-07-20T12:38:55;0.77;;;0.50;;
45686;SDS011;31399;51.176;7.776;2023-07-20T12:41:21;2.55;;;1.30;;
45686;SDS011;31399;51.176;7.776;2023-07-20T12:43:48;1.60;;;0.95;;
45686;SDS011;31399;51.176;7.776;2023-07-20T12:46:16;1.30;;;0.93;;
45686;SDS011;31399;51.176;7.776;2023-07-20T12:48:42;1.25;;;1.02;;
45686;SDS011;31399;51.176;7.776;2023-07-20T12:51:13;1.60;;;0.88;;
45686;SDS011;31399;51.176;7.776;2023-07-20T12:53:40;0.88;;;0.70;;
45686;SDS011;31399;51.176;7.776;2023-07-20T12:56:06;1.60;;;0.98;;
45686;SDS011;31399;51.176;7.776;2023-07-20T12:58:36;0.65;;;0.65;;
45686;SDS011;31399;51.176;7.776;2023-07-20T13:01:03;1.27;;;1.10;;
45686;SDS011;31399;51.176;7.776;2023-07-20T13:03:29;0.93;;;0.75;;
45686;SDS011;31399;51.176;7.776;2023-07-20T13:05:58;1.60;;;0.80;;
45686;SDS011;31399;51.176;7.776;2023-07-20T13:10:55;3.47;;;0.90;;
45686;SDS011;31399;51.176;7.776;2023-07-20T13:13:21;1.55;;;0.80;;
45686;SDS011;31399;51.176;7.776;2023-07-20T13:15:48;1.30;;;0.90;;
45686;SDS011;31399;51.176;7.776;2023-07-20T13:18:15;2.35;;;0.98;;
45686;SDS011;31399;51.176;7.776;2023-07-20T13:20:41;2.42;;;0.98;;
45686;SDS011;31399;51.176;7.776;2023-07-20T13:23:08;0.90;;;0.90;;
45686;SDS011;31399;51.176;7.776;2023-07-20T13:25:35;2.58;;;0.98;;
45686;SDS011;31399;51.176;7.776;2023-07-20T13:28:01;2.10;;;0.90;;
45686;SDS011;31399;51.176;7.776;2023-07-20T13:30:28;1.40;;;1.13;;
45686;SDS011;31399;51.176;7.776;2023-07-20T13:32:55;2.13;;;0.93;;
45686;SDS011;31399;51.176;7.776;2023-07-20T13:35:22;1.83;;;0.90;;
45686;SDS011;31399;51.176;7.776;2023-07-20T13:37:48;1.73;;;1.02;;
45686;SDS011;31399;51.176;7.776;2023-07-20T13:40:15;1.73;;;1.27;;
45686;SDS011;31399;51.176;7.776;2023-07-20T13:42:44;2.70;;;1.42;;
45686;SDS011;31399;51.176;7.776;2023-07-20T13:45:11;2.25;;;1.20;;
45686;SDS011;31399;51.176;7.776;2023-07-20T13:47:39;3.17;;;0.90;;
45686;SDS011;31399;51.176;7.776;2023-07-20T13:50:06;2.75;;;1.27;;
45686;SDS011;31399;51.176;7.776;2023-07-20T13:52:33;1.98;;;0.73;;
45686;SDS011;31399;51.176;7.776;2023-07-20T13:55:03;1.13;;;0.98;;
45686;SDS011;31399;51.176;7.776;2023-07-20T13:57:31;2.45;;;1.25;;
45686;SDS011;31399;51.176;7.776;2023-07-20T14:00:00;1.50;;;1.00;;
45686;SDS011;31399;51.176;7.776;2023-07-20T14:02:28;3.47;;;1.10;;
45686;SDS011;31399;51.176;7.776;2023-07-20T14:04:58;1.77;;;0.77;;
45686;SDS011;31399;51.176;7.776;2023-07-20T14:07:27;2.25;;;1.05;;
45686;SDS011;31399;51.176;7.776;2023-07-20T14:09:55;1.65;;;1.10;;
45686;SDS011;31399;51.176;7.776;2023-07-20T14:12:25;1.52;;;0.80;;
45686;SDS011;31399;51.176;7.776;2023-07-20T14:14:51;1.10;;;0.90;;
45686;SDS011;31399;51.176;7.776;2023-07-20T14:17:18;2.03;;;0.88;;
45686;SDS011;31399;51.176;7.776;2023-07-20T14:19:44;1.48;;;0.98;;
45686;SDS011;31399;51.176;7.776;2023-07-20T14:22:11;1.98;;;0.93;;
45686;SDS011;31399;51.176;7.776;2023-07-20T14:24:38;5.65;;;1.08;;
45686;SDS011;31399;51.176;7.776;2023-07-20T14:27:04;2.45;;;1.17;;
45686;SDS011;31399;51.176;7.776;2023-07-20T14:29:31;1.73;;;1.27;;
45686;SDS011;31399;51.176;7.776;2023-07-20T14:31:58;1.33;;;1.02;;
45686;SDS011;31399;51.176;7.776;2023-07-20T14:34:25;2.05;;;1.15;;
45686;SDS011;31399;51.176;7.776;2023-07-20T14:36:52;3.25;;;1.25;;
45686;SDS011;31399;51.176;7.776;2023-07-20T14:39:19;2.55;;;1.20;;
45686;SDS011;31399;51.176;7.776;2023-07-20T14:41:46;1.33;;;1.15;;
45686;SDS011;31399;51.176;7.776;2023-07-20T14:44:13;1.10;;;1.00;;
45686;SDS011;31399;51.176;7.776;2023-07-20T14:46:39;2.20;;;1.33;;
45686;SDS011;31399;51.176;7.776;2023-07-20T14:49:06;1.27;;;1.17;;
45686;SDS011;31399;51.176;7.776;2023-07-20T14:51:32;1.13;;;0.93;;
45686;SDS011;31399;51.176;7.776;2023-07-20T14:54:02;1.33;;;0.90;;
45686;SDS011;31399;51.176;7.776;2023-07-20T14:56:29;1.35;;;1.02;;
45686;SDS011;31399;51.176;7.776;2023-07-20T14:58:55;1.90;;;1.02;;
45686;SDS011;31399;51.176;7.776;2023-07-20T15:01:24;1.58;;;1.05;;
45686;SDS011;31399;51.176;7.776;2023-07-20T15:03:51;2.13;;;0.90;;
45686;SDS011;31399;51.176;7.776;2023-07-20T15:06:22;2.15;;;0.70;;